Time;durP1;ratioP1;P1;durP2;ratioP2;P2;SDS_P1;SDS_P2;PMS_P1;PMS_P2;Temp;Humidity;BMP_temperature;BMP_pressure;BME280_temperature;BME280_humidity;BME280_pressure;Samples;Min_cycle;Max_cycle;Signal;HPM_P1;HPM_P2
2022/10/06 00:00:52;;;;;;;4.78;1.10;;;13.80;99.90;;;;;;5074775;28;20507;-77
2022/10/06 00:03:21;;;;;;;5.15;1.20;;;13.70;99.90;;;;;;5074303;28;20496;-77
2022/10/06 00:05:48;;;;;;;4.45;1.20;;;13.70;99.90;;;;;;5074637;28;20129;-77
2022/10/06 00:08:14;;;;;;;3.28;0.90;;;13.70;99.90;;;;;;5074765;28;20124;-76
2022/10/06 00:10:39;;;;;;;4.70;1.03;;;13.60;99.90;;;;;;5074265;28;20131;-77
2022/10/06 00:13:05;;;;;;;3.97;1.10;;;13.60;99.90;;;;;;5074608;28;20051;-78
2022/10/06 00:15:32;;;;;;;5.23;1.27;;;13.50;99.90;;;;;;5074401;28;20494;-77
2022/10/06 00:17:58;;;;;;;4.07;1.27;;;13.50;99.90;;;;;;5074307;28;20058;-77
2022/10/06 00:20:25;;;;;;;7.20;1.20;;;13.50;99.90;;;;;;5074444;28;20058;-77
2022/10/06 00:22:51;;;;;;;4.47;1.02;;;13.50;99.90;;;;;;5074139;28;20040;-77
2022/10/06 00:25:23;;;;;;;4.37;1.63;;;13.50;99.90;;;;;;5073792;28;20052;-77
2022/10/06 00:27:50;;;;;;;5.30;1.27;;;13.40;99.90;;;;;;5074206;28;20219;-77
2022/10/06 00:30:19;;;;;;;3.03;1.00;;;13.40;99.90;;;;;;5074423;28;20460;-76
2022/10/06 00:32:59;;;;;;;4.43;0.95;;;13.40;99.90;;;;;;5073804;28;20041;-77
2022/10/06 00:35:32;;;;;;;4.07;1.33;;;13.30;99.90;;;;;;5073193;28;20041;-77
2022/10/06 00:37:58;;;;;;;4.07;1.08;;;13.30;99.90;;;;;;5073621;28;20056;-77
2022/10/06 00:40:24;;;;;;;4.70;1.30;;;13.30;99.90;;;;;;5074123;28;20121;-77
2022/10/06 00:43:03;;;;;;;3.40;1.10;;;13.20;99.90;;;;;;5073701;28;20489;-77
2022/10/06 00:45:37;;;;;;;5.30;1.33;;;13.20;99.90;;;;;;5073667;28;20044;-77
2022/10/06 00:48:11;;;;;;;4.18;1.23;;;13.10;99.90;;;;;;5074093;28;20462;-77
2022/10/06 00:50:37;;;;;;;4.38;1.08;;;13.10;99.90;;;;;;5073670;28;20053;-77
2022/10/06 00:53:04;;;;;;;1.87;0.87;;;13.50;99.90;;;;;;5073987;28;20088;-77
2022/10/06 00:55:30;;;;;;;3.60;1.15;;;13.50;99.90;;;;;;5073571;28;20488;-77
2022/10/06 00:57:57;;;;;;;3.80;1.27;;;13.20;99.90;;;;;;5073615;28;20127;-77
2022/10/06 01:00:22;;;;;;;3.28;1.20;;;13.00;99.90;;;;;;5073669;28;20119;-77
2022/10/06 01:02:55;;;;;;;6.45;1.20;;;13.00;99.90;;;;;;5073697;28;20140;-77
2022/10/06 01:05:32;;;;;;;4.13;1.23;;;13.10;99.90;;;;;;5073789;28;20426;-78
2022/10/06 01:07:58;;;;;;;4.03;1.10;;;12.90;99.90;;;;;;5073735;28;20052;-77
2022/10/06 01:10:24;;;;;;;5.18;1.25;;;12.90;99.90;;;;;;5073504;28;20442;-77
2022/10/06 01:12:50;;;;;;;4.00;1.17;;;12.90;99.90;;;;;;5073454;28;20045;-77
2022/10/06 01:15:17;;;;;;;3.33;1.10;;;12.90;99.90;;;;;;5073365;28;20049;-77
2022/10/06 01:17:54;;;;;;;4.83;1.20;;;12.90;99.90;;;;;;5073561;28;20446;-77
2022/10/06 01:20:21;;;;;;;3.75;1.20;;;12.80;99.90;;;;;;5073606;28;20317;-77
2022/10/06 01:22:52;;;;;;;5.07;1.08;;;12.80;99.90;;;;;;5073379;28;20048;-77
2022/10/06 01:25:19;;;;;;;6.68;1.30;;;12.70;99.90;;;;;;5073584;28;20044;-77
2022/10/06 01:27:52;;;;;;;3.30;1.08;;;12.70;99.90;;;;;;5073548;28;20059;-76
2022/10/06 01:30:28;;;;;;;5.72;1.58;;;12.70;99.90;;;;;;5073292;28;20124;-77
2022/10/06 01:32:54;;;;;;;2.90;1.10;;;12.60;99.90;;;;;;5073520;28;20047;-77
2022/10/06 01:35:20;;;;;;;4.63;1.43;;;12.60;99.90;;;;;;5073428;28;20044;-77
2022/10/06 01:37:45;;;;;;;4.25;1.58;;;12.50;99.90;;;;;;5073317;28;20044;-77
2022/10/06 01:40:11;;;;;;;4.35;1.45;;;12.50;99.90;;;;;;5073403;28;20076;-77
2022/10/06 01:42:37;;;;;;;4.80;1.30;;;12.50;99.90;;;;;;5072943;28;20060;-77
2022/10/06 01:45:03;;;;;;;4.35;1.25;;;12.40;99.90;;;;;;5073223;28;20123;-77
2022/10/06 01:47:29;;;;;;;8.02;1.45;;;12.40;99.90;;;;;;5073579;28;20045;-77
2022/10/06 01:49:55;;;;;;;3.88;1.20;;;12.40;99.90;;;;;;5073272;28;20110;-77
2022/10/06 01:52:20;;;;;;;4.18;1.10;;;12.30;99.90;;;;;;5073357;28;20401;-77
2022/10/06 01:54:46;;;;;;;6.57;1.30;;;12.30;99.90;;;;;;5073097;28;20052;-78
2022/10/06 01:57:12;;;;;;;5.28;1.25;;;12.30;99.90;;;;;;5072842;28;20045;-77
2022/10/06 01:59:37;;;;;;;6.13;1.48;;;12.40;99.90;;;;;;5072917;28;20056;-77
2022/10/06 02:02:03;;;;;;;5.50;1.25;;;12.20;99.90;;;;;;5074401;28;20056;-76
2022/10/06 02:04:29;;;;;;;7.27;1.80;;;12.20;99.90;;;;;;5076920;28;20052;-78
2022/10/06 02:06:55;;;;;;;5.13;1.15;;;12.20;99.90;;;;;;5076983;28;20495;-77
2022/10/06 02:09:22;;;;;;;5.93;1.50;;;12.30;99.90;;;;;;5076973;28;20048;-77
2022/10/06 02:11:48;;;;;;;;;;;12.10;99.90;;;;;;5077309;28;20388;-77
2022/10/06 02:14:13;;;;;;;7.03;1.30;;;12.00;99.90;;;;;;5076565;28;19920;-77
2022/10/06 02:16:39;;;;;;;6.53;1.25;;;12.00;99.90;;;;;;5076829;28;20045;-77
2022/10/06 02:19:05;;;;;;;6.78;1.42;;;12.00;99.90;;;;;;5076825;28;20044;-77
2022/10/06 02:21:31;;;;;;;9.98;2.15;;;12.00;99.90;;;;;;5076762;28;20090;-77
2022/10/06 02:23:57;;;;;;;6.33;1.57;;;12.00;99.90;;;;;;5076606;28;20090;-77
2022/10/06 02:26:22;;;;;;;6.55;2.05;;;11.90;99.90;;;;;;5076429;28;20492;-77
2022/10/06 02:28:51;;;;;;;6.97;1.35;;;12.00;99.90;;;;;;5076178;28;20052;-77
2022/10/06 02:31:17;;;;;;;6.43;1.70;;;11.70;99.90;;;;;;5076576;28;20048;-77
2022/10/06 02:33:43;;;;;;;9.15;1.63;;;11.80;99.90;;;;;;5076561;28;20050;-77
2022/10/06 02:36:12;;;;;;;4.85;1.67;;;11.80;99.90;;;;;;5076370;28;20049;-77
2022/10/06 02:38:38;;;;;;;5.85;1.58;;;11.80;99.90;;;;;;5076511;28;20091;-77
2022/10/06 02:41:05;;;;;;;5.53;1.45;;;11.70;99.90;;;;;;5075807;28;20079;-77
2022/10/06 02:43:30;;;;;;;4.45;1.27;;;11.70;99.90;;;;;;5076377;28;20056;-77
2022/10/06 02:46:03;;;;;;;5.22;1.20;;;11.70;99.90;;;;;;5076284;28;20055;-77
2022/10/06 02:48:30;;;;;;;5.88;1.67;;;11.80;99.90;;;;;;5076126;28;20044;-77
2022/10/06 02:50:56;;;;;;;6.70;1.58;;;11.80;99.90;;;;;;5076242;28;20067;-77
2022/10/06 02:53:24;;;;;;;7.35;1.65;;;11.60;99.90;;;;;;5075932;28;20087;-77
2022/10/06 02:56:00;;;;;;;6.97;1.67;;;12.00;99.90;;;;;;5075524;28;20833;-77
2022/10/06 02:58:28;;;;;;;7.38;1.98;;;11.80;99.90;;;;;;5074664;28;20484;-77
2022/10/06 03:00:59;;;;;;;5.38;1.85;;;11.60;99.90;;;;;;5076081;28;20056;-77
2022/10/06 03:03:25;;;;;;;8.43;1.50;;;11.60;99.90;;;;;;5075778;28;20476;-77
2022/10/06 03:06:01;;;;;;;6.72;1.70;;;11.60;99.90;;;;;;5075876;28;20040;-76
2022/10/06 03:08:27;;;;;;;9.25;1.85;;;11.60;99.90;;;;;;5075790;28;20044;-77
2022/10/06 03:10:59;;;;;;;12.05;1.80;;;11.60;99.90;;;;;;5075789;28;20071;-77
2022/10/06 03:13:24;;;;;;;6.70;1.98;;;11.80;99.90;;;;;;5074671;28;20044;-76
2022/10/06 03:15:50;;;;;;;10.02;1.52;;;11.60;99.90;;;;;;5075837;28;20357;-77
2022/10/06 03:18:16;;;;;;;6.68;1.70;;;11.60;99.90;;;;;;5075548;28;20377;-77
2022/10/06 03:20:41;;;;;;;6.97;1.85;;;11.60;99.90;;;;;;5075493;28;20048;-77
2022/10/06 03:23:07;;;;;;;9.52;2.10;;;11.60;99.90;;;;;;5075476;28;20060;-77
2022/10/06 03:25:32;;;;;;;5.03;1.42;;;11.60;99.90;;;;;;5075259;28;20132;-77
2022/10/06 03:27:58;;;;;;;12.00;1.45;;;11.60;99.90;;;;;;5075700;28;20041;-77
2022/10/06 03:30:23;;;;;;;3.67;1.25;;;11.60;99.90;;;;;;5075318;28;20554;-76
2022/10/06 03:32:51;;;;;;;6.35;1.70;;;11.50;99.90;;;;;;5075415;28;20044;-77
2022/10/06 03:35:17;;;;;;;8.23;1.52;;;11.50;99.90;;;;;;5075375;28;20044;-77
2022/10/06 03:37:42;;;;;;;5.75;1.77;;;11.50;99.90;;;;;;5074870;28;20040;-77
2022/10/06 03:40:08;;;;;;;9.23;2.17;;;11.40;99.90;;;;;;5075112;28;20040;-77
2022/10/06 03:42:34;;;;;;;7.97;2.50;;;11.50;99.90;;;;;;5075342;28;20061;-77
2022/10/06 03:45:00;;;;;;;5.88;1.85;;;11.40;99.90;;;;;;5074786;28;20139;-76
2022/10/06 03:47:27;;;;;;;5.80;1.27;;;11.40;99.90;;;;;;5074965;28;20052;-77
2022/10/06 03:49:53;;;;;;;5.57;1.50;;;11.40;99.90;;;;;;5075107;28;20392;-78
2022/10/06 03:52:18;;;;;;;8.15;2.63;;;11.30;99.90;;;;;;5074821;28;20052;-77
2022/10/06 03:54:44;;;;;;;8.18;1.40;;;11.30;99.90;;;;;;5074916;28;20076;-77
2022/10/06 03:57:10;;;;;;;9.10;2.33;;;11.50;99.90;;;;;;5074842;28;20447;-77
2022/10/06 03:59:35;;;;;;;7.03;1.77;;;11.20;99.90;;;;;;5074822;28;20123;-77
2022/10/06 04:02:02;;;;;;;8.57;2.13;;;11.20;99.90;;;;;;5074492;28;20036;-77
2022/10/06 04:04:27;;;;;;;8.60;1.73;;;11.20;99.90;;;;;;5074876;28;20089;-77
2022/10/06 04:06:53;;;;;;;6.88;1.80;;;11.20;99.90;;;;;;5074280;28;20049;-77
2022/10/06 04:09:18;;;;;;;6.20;1.75;;;11.10;99.90;;;;;;5074478;28;20041;-77
2022/10/06 04:11:44;;;;;;;4.88;1.27;;;11.10;99.90;;;;;;5074737;28;20533;-77
2022/10/06 04:14:13;;;;;;;8.90;1.83;;;11.10;99.90;;;;;;5074593;28;20040;-77
2022/10/06 04:16:49;;;;;;;7.20;1.73;;;11.20;99.90;;;;;;5074526;28;20053;-77
2022/10/06 04:19:16;;;;;;;11.43;1.92;;;11.00;99.90;;;;;;5074518;28;20123;-77
2022/10/06 04:21:44;;;;;;;9.98;2.13;;;11.00;99.90;;;;;;5074433;28;20044;-77
2022/10/06 04:24:10;;;;;;;6.47;1.50;;;11.00;99.90;;;;;;5073971;28;20049;-77
2022/10/06 04:26:43;;;;;;;8.70;1.38;;;11.00;99.90;;;;;;5073825;28;20473;-76
2022/10/06 04:29:09;;;;;;;6.30;1.60;;;10.90;99.90;;;;;;5074403;28;20139;-77
2022/10/06 04:31:37;;;;;;;7.30;2.22;;;10.80;99.90;;;;;;5074355;28;20040;-77
2022/10/06 04:34:04;;;;;;;7.72;1.80;;;11.10;99.90;;;;;;5074111;28;20391;-77
2022/10/06 04:36:32;;;;;;;11.80;1.85;;;10.80;99.90;;;;;;5073242;28;20040;-76
2022/10/06 04:39:00;;;;;;;6.43;1.27;;;10.80;99.90;;;;;;5073918;28;20471;-77
2022/10/06 04:41:31;;;;;;;8.93;1.63;;;10.70;99.90;;;;;;5074035;28;20049;-76
2022/10/06 04:43:57;;;;;;;4.80;1.55;;;10.70;99.90;;;;;;5073748;28;20056;-76
2022/10/06 04:46:24;;;;;;;8.10;1.60;;;10.60;99.90;;;;;;5073683;28;20036;-77
2022/10/06 04:48:53;;;;;;;11.98;2.55;;;10.60;99.90;;;;;;5073483;28;20864;-77
2022/10/06 04:51:21;;;;;;;7.63;1.67;;;10.60;99.90;;;;;;5073896;28;20055;-77
2022/10/06 04:53:47;;;;;;;6.57;1.85;;;10.60;99.90;;;;;;5073611;28;20048;-77
2022/10/06 04:56:16;;;;;;;7.55;2.13;;;10.50;99.90;;;;;;5073504;28;20044;-77
2022/10/06 04:58:44;;;;;;;8.70;1.92;;;10.90;99.90;;;;;;5073500;28;20058;-77
2022/10/06 05:01:17;;;;;;;7.15;1.98;;;10.40;99.90;;;;;;5073497;28;20040;-77
2022/10/06 05:03:44;;;;;;;6.78;1.70;;;10.40;99.90;;;;;;5073735;28;20388;-77
2022/10/06 05:06:12;;;;;;;5.50;1.33;;;10.30;99.90;;;;;;5073177;28;20045;-77
2022/10/06 05:08:38;;;;;;;10.23;1.70;;;10.30;99.90;;;;;;5073549;28;20384;-77
2022/10/06 05:11:07;;;;;;;8.23;1.80;;;10.30;99.90;;;;;;5073497;28;20044;-77
2022/10/06 05:13:36;;;;;;;11.85;1.67;;;10.20;99.90;;;;;;5073578;28;20535;-77
2022/10/06 05:16:02;;;;;;;6.25;1.40;;;10.20;99.90;;;;;;5073596;28;20527;-77
2022/10/06 05:18:29;;;;;;;4.80;1.23;;;10.20;99.90;;;;;;5073441;28;20082;-77
2022/10/06 05:20:57;;;;;;;5.72;1.42;;;10.20;99.90;;;;;;5073465;28;20048;-77
2022/10/06 05:23:24;;;;;;;14.73;2.38;;;10.30;99.90;;;;;;5073330;28;20101;-77
2022/10/06 05:25:54;;;;;;;9.02;1.92;;;10.10;99.90;;;;;;5073384;28;20053;-76
2022/10/06 05:28:21;;;;;;;6.55;1.63;;;10.10;99.90;;;;;;5073393;28;20472;-77
2022/10/06 05:30:58;;;;;;;5.68;1.70;;;10.10;99.90;;;;;;5055709;28;20056;-76
2022/10/06 05:33:25;;;;;;;6.63;1.48;;;10.10;99.90;;;;;;5073554;28;20082;-77
2022/10/06 05:36:02;;;;;;;7.75;1.65;;;10.40;99.90;;;;;;5073217;28;20170;-78
2022/10/06 05:38:28;;;;;;;8.32;1.73;;;10.10;99.90;;;;;;5077055;28;20045;-78
2022/10/06 05:41:05;;;;;;;9.77;1.50;;;10.00;99.90;;;;;;5077485;28;20044;-79
2022/10/06 05:43:32;;;;;;;9.48;1.85;;;10.00;99.90;;;;;;5077220;28;20048;-80
2022/10/06 05:45:59;;;;;;;8.95;1.45;;;10.00;99.90;;;;;;5077332;28;20082;-78
2022/10/06 05:48:25;;;;;;;4.13;1.20;;;10.00;99.90;;;;;;5077328;28;20134;-80
2022/10/06 05:51:08;;;;;;;6.60;1.80;;;10.00;99.90;;;;;;5076831;28;20377;-80
2022/10/06 05:53:35;;;;;;;6.38;1.35;;;10.00;99.90;;;;;;5076858;28;20275;-80
2022/10/06 05:56:07;;;;;;;6.43;1.58;;;10.00;99.90;;;;;;5077549;28;20045;-82
2022/10/06 05:58:34;;;;;;;6.85;1.83;;;10.00;99.90;;;;;;5077281;28;20051;-81
2022/10/06 06:01:13;;;;;;;6.15;1.70;;;10.00;99.90;;;;;;5076249;28;20086;-82
2022/10/06 06:03:40;;;;;;;6.00;1.52;;;10.00;99.90;;;;;;5077001;28;20044;-80
2022/10/06 06:06:22;;;;;;;;;;;10.50;99.90;;;;;;5077017;28;20037;-80
2022/10/06 06:08:52;;;;;;;7.60;1.73;;;10.00;99.90;;;;;;5077089;28;19929;-82
2022/10/06 06:11:24;;;;;;;4.80;1.52;;;10.00;99.90;;;;;;5076966;28;20047;-81
2022/10/06 06:14:18;;;;;;;8.82;1.90;;;10.00;99.90;;;;;;5076848;28;20059;-81
2022/10/06 06:16:45;;;;;;;4.82;1.45;;;10.00;99.90;;;;;;5071880;28;20053;-81
2022/10/06 06:19:12;;;;;;;8.05;1.80;;;10.00;99.90;;;;;;5076691;28;20044;-80
2022/10/06 06:21:38;;;;;;;9.27;2.03;;;10.10;99.90;;;;;;5076687;28;20059;-79
2022/10/06 06:24:05;;;;;;;11.67;1.60;;;10.10;99.90;;;;;;5075549;28;20087;-81
2022/10/06 06:26:33;;;;;;;5.20;1.67;;;10.40;99.90;;;;;;5076607;28;20093;-81
2022/10/06 06:29:03;;;;;;;6.80;1.55;;;10.10;99.90;;;;;;5076532;28;20094;-80
2022/10/06 06:31:32;;;;;;;11.10;1.80;;;10.10;99.90;;;;;;5076999;28;20044;-79
2022/10/06 06:34:00;;;;;;;7.80;2.28;;;10.20;99.90;;;;;;5076169;28;20090;-79
2022/10/06 06:36:28;;;;;;;7.47;1.58;;;10.20;99.90;;;;;;5075300;28;20055;-80
2022/10/06 06:38:56;;;;;;;10.38;2.15;;;10.20;99.90;;;;;;5076269;28;20124;-80
2022/10/06 06:41:27;;;;;;;12.00;1.83;;;10.20;99.90;;;;;;5075451;28;20038;-80
2022/10/06 06:43:54;;;;;;;8.60;1.75;;;10.20;99.90;;;;;;5076556;28;20061;-79
2022/10/06 06:46:23;;;;;;;14.38;2.00;;;10.30;99.90;;;;;;5076232;28;20044;-79
2022/10/06 06:48:51;;;;;;;6.32;1.58;;;10.30;99.90;;;;;;5075667;28;20408;-79
2022/10/06 06:51:18;;;;;;;8.55;1.70;;;10.30;99.90;;;;;;5076002;28;20092;-80
2022/10/06 06:53:43;;;;;;;;;;;10.40;99.90;;;;;;5076298;28;20044;-79
2022/10/06 06:56:09;;;;;;;9.13;1.58;;;10.40;99.90;;;;;;5075676;28;19927;-79
2022/10/06 06:58:35;;;;;;;8.50;1.98;;;10.40;99.90;;;;;;5076212;28;20040;-79
2022/10/06 07:01:12;;;;;;;7.20;1.80;;;10.50;99.90;;;;;;5076015;28;20619;-79
2022/10/06 07:03:39;;;;;;;;;;;10.60;99.90;;;;;;5076336;28;20274;-79
2022/10/06 07:06:08;;;;;;;7.05;1.75;;;10.60;99.90;;;;;;5075660;28;19920;-79
2022/10/06 07:08:45;;;;;;;7.18;2.00;;;10.70;99.90;;;;;;5075637;28;20481;-79
2022/10/06 07:11:16;;;;;;;9.40;1.92;;;10.70;99.90;;;;;;5076041;28;20388;-79
2022/10/06 07:13:42;;;;;;;9.95;2.10;;;10.80;99.90;;;;;;5075643;28;20055;-79
2022/10/06 07:27:10;;;;;;;5.93;1.90;;;11.40;99.90;;;;;;5074388;28;20048;-78
2022/10/06 07:29:36;;;;;;;7.43;2.45;;;12.00;99.90;;;;;;5075432;28;20094;-78
2022/10/06 07:32:02;;;;;;;5.70;1.77;;;11.60;99.90;;;;;;5075307;28;20530;-80
2022/10/06 07:34:29;;;;;;;6.45;1.77;;;11.70;99.90;;;;;;5075603;28;20051;-78
2022/10/06 07:36:57;;;;;;;9.88;1.85;;;11.80;99.90;;;;;;5075321;28;20165;-83
2022/10/06 07:39:23;;;;;;;8.57;2.05;;;11.90;99.90;;;;;;5074096;28;20067;-78
2022/10/06 07:41:49;;;;;;;13.32;2.88;;;11.90;99.90;;;;;;5075033;28;20465;-78
2022/10/06 07:44:14;;;;;;;11.48;2.38;;;12.00;99.90;;;;;;5075047;28;20044;-77
2022/10/06 07:46:41;;;;;;;12.63;1.92;;;12.10;99.90;;;;;;5074930;28;20040;-80
2022/10/06 07:49:07;;;;;;;10.35;2.13;;;12.20;99.90;;;;;;5075012;28;20178;-78
2022/10/06 07:51:32;;;;;;;9.00;1.95;;;12.30;99.90;;;;;;5074910;28;20123;-78
2022/10/06 07:53:58;;;;;;;8.63;1.75;;;12.30;99.90;;;;;;5074921;28;20048;-79
2022/10/06 07:56:24;;;;;;;9.80;1.88;;;12.40;99.90;;;;;;5073794;28;20426;-80
2022/10/06 07:58:50;;;;;;;9.85;1.75;;;12.50;99.90;;;;;;5074350;28;20139;-79
2022/10/06 08:01:18;;;;;;;10.60;2.03;;;12.60;99.90;;;;;;5074279;28;20219;-78
2022/10/06 08:03:47;;;;;;;8.63;2.10;;;12.60;99.90;;;;;;5073826;28;20079;-79
2022/10/06 08:06:14;;;;;;;7.55;1.92;;;12.70;99.90;;;;;;5074730;28;20051;-79
2022/10/06 08:08:42;;;;;;;9.85;2.25;;;12.80;99.90;;;;;;5074636;28;20044;-79
2022/10/06 08:11:10;;;;;;;13.60;2.00;;;12.80;99.90;;;;;;5074632;28;20041;-79
2022/10/06 08:13:38;;;;;;;12.55;2.45;;;12.90;99.90;;;;;;5074130;28;20037;-79
2022/10/06 08:16:07;;;;;;;10.63;2.28;;;13.00;99.90;;;;;;5068051;28;20393;-77
2022/10/06 08:18:34;;;;;;;7.07;1.95;;;13.00;99.90;;;;;;5060259;28;20051;-78
2022/10/06 08:20:59;;;;;;;7.83;2.13;;;13.20;99.90;;;;;;5054460;28;20365;-78
2022/10/06 08:23:25;;;;;;;13.00;2.17;;;13.40;99.90;;;;;;5060765;28;20055;-78
2022/10/06 08:25:53;;;;;;;10.73;2.33;;;13.20;99.90;;;;;;5074039;28;20049;-78
2022/10/06 08:28:21;;;;;;;11.18;1.92;;;13.40;99.90;;;;;;5070546;28;20045;-78
2022/10/06 08:30:46;;;;;;;9.65;2.38;;;13.40;99.90;;;;;;5054063;28;20124;-79
2022/10/06 08:33:12;;;;;;;8.52;1.63;;;13.60;99.90;;;;;;5054228;28;20441;-79
2022/10/06 08:35:38;;;;;;;9.23;2.10;;;13.60;99.90;;;;;;5054230;28;20041;-79
2022/10/06 08:38:04;;;;;;;8.45;2.25;;;13.70;99.90;;;;;;5054127;28;20098;-78
2022/10/06 08:40:31;;;;;;;10.27;2.15;;;13.80;99.90;;;;;;5054157;28;20041;-78
2022/10/06 08:42:59;;;;;;;10.75;2.25;;;13.90;99.90;;;;;;5053629;28;20061;-78
2022/10/06 08:45:34;;;;;;;7.70;2.10;;;13.90;99.90;;;;;;5053722;28;20067;-78
2022/10/06 08:48:13;;;;;;;8.48;2.05;;;14.10;99.90;;;;;;5053884;28;20124;-78
2022/10/06 08:50:52;;;;;;;10.23;2.65;;;14.30;99.90;;;;;;5052886;28;20049;-78
2022/10/06 08:53:27;;;;;;;10.15;2.28;;;14.20;99.90;;;;;;5053765;28;20111;-79
2022/10/06 08:56:03;;;;;;;9.65;2.25;;;14.20;99.90;;;;;;5053902;28;20048;-78
2022/10/06 08:58:35;;;;;;;7.20;2.10;;;14.40;99.90;;;;;;5053946;28;20052;-81
2022/10/06 09:01:17;;;;;;;10.40;2.72;;;14.40;99.90;;;;;;5056392;28;20516;-79
2022/10/06 09:03:48;;;;;;;10.00;2.60;;;14.50;99.90;;;;;;5052984;28;20076;-78
2022/10/06 09:06:17;;;;;;;8.77;2.22;;;14.60;99.90;;;;;;5051802;28;20048;-79
2022/10/06 09:09:06;;;;;;;12.02;2.30;;;14.60;99.90;;;;;;5053408;28;20520;-80
2022/10/06 09:11:53;;;;;;;9.35;2.13;;;14.70;99.90;;;;;;5043155;28;20060;-77
2022/10/06 09:14:26;;;;;;;10.43;2.23;;;14.70;99.90;;;;;;5053254;28;20071;-77
2022/10/06 09:16:59;;;;;;;11.70;2.53;;;14.80;99.90;;;;;;5052369;28;20295;-78
2022/10/06 09:20:02;;;;;;;9.32;2.20;;;14.90;99.90;;;;;;5053726;28;20106;-80
2022/10/06 09:22:30;;;;;;;9.05;1.90;;;14.90;99.90;;;;;;5030984;28;20051;-80
2022/10/06 09:25:04;;;;;;;7.10;2.03;;;15.00;99.90;;;;;;5057197;28;20148;-79
2022/10/06 09:27:32;;;;;;;11.25;2.22;;;15.10;99.90;;;;;;5071396;28;20161;-79
2022/10/06 09:30:00;;;;;;;9.57;2.20;;;15.20;99.90;;;;;;5073263;28;20127;-79
2022/10/06 09:32:28;;;;;;;9.27;2.35;;;15.20;99.90;;;;;;5073411;28;20048;-79
2022/10/06 09:34:55;;;;;;;8.50;2.35;;;15.30;99.90;;;;;;5073394;28;20080;-80
2022/10/06 09:37:22;;;;;;;7.38;2.00;;;15.40;99.90;;;;;;5071768;28;20488;-79
2022/10/06 09:39:49;;;;;;;7.55;1.90;;;15.50;99.90;;;;;;5073348;28;20056;-78
2022/10/06 09:42:24;;;;;;;13.18;2.00;;;15.40;99.90;;;;;;5072810;28;20060;-79
2022/10/06 09:44:50;;;;;;;8.57;2.30;;;15.40;99.90;;;;;;5073220;28;20045;-79
2022/10/06 09:47:27;;;;;;;7.33;2.47;;;15.60;99.90;;;;;;5072954;28;20045;-79
2022/10/06 09:50:13;;;;;;;;;;;15.50;99.90;;;;;;5073283;28;20044;-78
2022/10/06 09:53:00;;;;;;;9.93;2.40;;;15.40;99.90;;;;;;5072155;28;19925;-79
2022/10/06 09:55:32;;;;;;;7.38;1.83;;;15.50;99.90;;;;;;5073433;28;20412;-78
2022/10/06 09:57:59;;;;;;;9.23;2.30;;;15.60;99.90;;;;;;5072970;28;20055;-78
2022/10/06 10:00:35;;;;;;;6.78;1.73;;;15.50;99.90;;;;;;5073173;28;20066;-77
2022/10/06 10:03:07;;;;;;;7.72;1.80;;;15.40;99.90;;;;;;5072843;28;20485;-79
2022/10/06 10:05:35;;;;;;;7.88;2.05;;;15.40;99.90;;;;;;5073116;28;20123;-78
2022/10/06 10:08:16;;;;;;;8.98;1.98;;;15.30;99.90;;;;;;5073067;28;20045;-79
2022/10/06 10:10:42;;;;;;;7.25;1.63;;;15.30;99.90;;;;;;5072840;28;20040;-77
2022/10/06 10:13:23;;;;;;;11.13;2.33;;;15.30;99.90;;;;;;5064320;28;20043;-78
2022/10/06 10:15:53;;;;;;;6.50;1.83;;;15.40;99.90;;;;;;5072869;28;20507;-76
2022/10/06 10:18:25;;;;;;;7.47;1.90;;;15.50;99.90;;;;;;5073042;28;20045;-80
2022/10/06 10:20:59;;;;;;;7.90;1.70;;;15.60;99.90;;;;;;5072948;28;20143;-81
2022/10/06 10:23:29;;;;;;;9.43;2.05;;;15.70;99.90;;;;;;5073657;28;20502;-81
2022/10/06 10:26:25;;;;;;;5.85;1.60;;;15.80;99.90;;;;;;5076420;28;20084;-81
2022/10/06 10:29:13;;;;;;;11.88;2.08;;;15.70;99.90;;;;;;5076701;28;20080;-79
2022/10/06 10:31:42;;;;;;;;;;;15.80;99.90;;;;;;5076870;28;20094;-78
2022/10/06 10:34:32;;;;;;;6.90;1.83;;;16.00;99.90;;;;;;5076500;28;19966;-79
2022/10/06 10:37:20;;;;;;;5.70;1.88;;;16.00;99.90;;;;;;5076332;28;20444;-80
2022/10/06 10:40:04;;;;;;;8.77;1.70;;;16.20;99.90;;;;;;5075877;28;20043;-81
2022/10/06 10:42:36;;;;;;;8.23;1.80;;;16.30;99.90;;;;;;5073518;28;20058;-79
2022/10/06 10:45:10;;;;;;;7.80;1.80;;;16.40;99.90;;;;;;5074833;28;20048;-81
2022/10/06 10:47:43;;;;;;;8.63;1.75;;;16.50;99.90;;;;;;5058719;28;20041;-80
2022/10/06 10:50:26;;;;;;;8.88;2.47;;;16.40;99.90;;;;;;5074962;28;20044;-80
2022/10/06 10:53:01;;;;;;;7.47;1.77;;;16.20;99.90;;;;;;5075209;28;20041;-81
2022/10/06 10:55:40;;;;;;;7.00;1.70;;;16.00;99.90;;;;;;5074645;28;20040;-80
2022/10/06 10:58:30;;;;;;;6.95;1.98;;;15.80;99.90;;;;;;5075151;28;20446;-80
2022/10/06 11:01:04;;;;;;;6.85;1.98;;;15.70;99.90;;;;;;5075892;28;20455;-80
2022/10/06 11:03:30;;;;;;;7.82;1.80;;;15.60;99.90;;;;;;5075920;28;20136;-79
2022/10/06 11:06:25;;;;;;;6.60;1.60;;;15.40;99.90;;;;;;5057619;28;20041;-80
2022/10/06 11:09:01;;;;;;;7.00;1.80;;;15.60;99.90;;;;;;5075845;28;20058;-80
2022/10/06 11:11:46;;;;;;;6.50;1.85;;;15.80;99.90;;;;;;5075253;28;20089;-79
2022/10/06 11:14:29;;;;;;;8.02;1.90;;;16.00;99.90;;;;;;5075718;28;20123;-78
2022/10/06 11:17:13;;;;;;;7.28;1.70;;;16.20;99.90;;;;;;5075790;28;20453;-77
2022/10/06 11:20:03;;;;;;;6.03;1.90;;;16.40;99.90;;;;;;5075329;28;20048;-77
2022/10/06 11:23:05;;;;;;;9.07;1.85;;;16.50;99.90;;;;;;5075661;28;20102;-77
2022/10/06 11:26:18;;;;;;;6.18;1.63;;;16.40;99.90;;;;;;5059657;28;20060;-77
2022/10/06 11:28:48;;;;;;;12.70;2.83;;;16.30;99.90;;;;;;5051977;28;20112;-78
2022/10/06 11:31:34;;;;;;;6.25;1.90;;;16.30;99.90;;;;;;5075428;28;20051;-77
2022/10/06 11:34:03;;;;;;;6.78;1.40;;;16.20;99.90;;;;;;5073413;28;20080;-77
2022/10/06 11:36:50;;;;;;;8.77;1.70;;;16.30;99.90;;;;;;5073587;28;20443;-78
2022/10/06 11:39:15;;;;;;;6.43;1.90;;;16.40;99.90;;;;;;5075180;28;20040;-77
2022/10/06 11:41:48;;;;;;;6.63;1.93;;;16.50;99.90;;;;;;5075306;28;20056;-78
2022/10/06 11:44:22;;;;;;;7.35;1.73;;;16.60;99.90;;;;;;5075297;28;20084;-77
2022/10/06 11:47:00;;;;;;;6.13;1.60;;;16.80;99.90;;;;;;5073838;28;20097;-77
2022/10/06 11:49:29;;;;;;;6.80;2.13;;;16.90;99.90;;;;;;5075126;28;20041;-77
2022/10/06 11:51:56;;;;;;;5.43;1.65;;;16.80;99.90;;;;;;5075083;28;20078;-77
2022/10/06 11:54:46;;;;;;;7.05;1.92;;;16.90;99.90;;;;;;5074667;28;20041;-78
2022/10/06 11:57:21;;;;;;;5.78;1.35;;;17.00;99.90;;;;;;5074515;28;20040;-77
2022/10/06 11:59:48;;;;;;;4.90;1.40;;;17.20;99.90;;;;;;5074955;28;20052;-77
2022/10/06 12:02:31;;;;;;;;;;;17.30;99.90;;;;;;5075265;28;20098;-77
2022/10/06 12:05:09;;;;;;;6.80;1.70;;;17.40;99.90;;;;;;5074488;28;20430;-77
2022/10/06 12:07:58;;;;;;;;;;;17.50;99.90;;;;;;5074965;28;20044;-78
2022/10/06 12:10:26;;;;;;;6.78;1.40;;;17.60;99.90;;;;;;5069043;28;20034;-78
2022/10/06 12:13:13;;;;;;;7.43;1.50;;;17.70;99.90;;;;;;5074840;28;20093;-77
2022/10/06 12:16:00;;;;;;;7.97;2.08;;;17.80;99.90;;;;;;5074390;28;20405;-78
2022/10/06 12:18:49;;;;;;;5.63;1.40;;;17.70;99.90;;;;;;5074545;28;20098;-77
2022/10/06 12:21:33;;;;;;;7.65;1.60;;;17.70;99.90;;;;;;5062784;28;20309;-78
2022/10/06 12:24:02;;;;;;;5.55;1.40;;;17.70;99.90;;;;;;5074527;28;20408;-78
2022/10/06 12:26:34;;;;;;;5.63;1.38;;;17.70;99.90;;;;;;5074128;28;20437;-78
2022/10/06 12:29:24;;;;;;;6.78;1.77;;;17.70;99.90;;;;;;5074386;28;20041;-78
2022/10/06 12:32:02;;;;;;;9.88;1.85;;;17.80;99.90;;;;;;5074351;28;20124;-76
2022/10/06 12:34:57;;;;;;;5.80;1.70;;;17.90;99.90;;;;;;5074342;28;20044;-76
2022/10/06 12:37:49;;;;;;;5.70;1.40;;;17.90;99.90;;;;;;5074006;28;20491;-78
2022/10/06 12:40:42;;;;;;;6.05;1.45;;;17.90;99.90;;;;;;5074200;28;20051;-76
2022/10/06 12:43:17;;;;;;;5.22;1.58;;;17.90;99.90;;;;;;5073940;28;20060;-77
2022/10/06 12:45:54;;;;;;;8.18;1.80;;;18.10;99.90;;;;;;5073674;28;20044;-76
2022/10/06 12:48:35;;;;;;;7.38;1.73;;;18.10;99.90;;;;;;5073921;28;20135;-76
2022/10/06 12:51:24;;;;;;;5.85;1.70;;;18.00;99.90;;;;;;5073861;28;20048;-77
2022/10/06 12:53:57;;;;;;;5.75;1.50;;;17.90;99.90;;;;;;5070136;28;20488;-76
2022/10/06 12:56:42;;;;;;;10.40;1.48;;;17.80;99.90;;;;;;5072802;28;20041;-77
2022/10/06 12:59:23;;;;;;;7.53;1.63;;;17.70;99.90;;;;;;5073946;28;20377;-74
2022/10/06 13:01:51;;;;;;;5.00;1.58;;;17.60;99.90;;;;;;5073800;28;20463;-76
2022/10/06 13:04:39;;;;;;;6.05;1.23;;;17.50;99.90;;;;;;5073588;28;20045;-74
2022/10/06 13:07:15;;;;;;;5.45;1.20;;;17.60;99.90;;;;;;5073719;28;20049;-75
2022/10/06 13:09:40;;;;;;;5.55;1.40;;;17.50;99.90;;;;;;5073732;28;20051;-76
2022/10/06 13:12:29;;;;;;;4.07;1.23;;;17.50;99.90;;;;;;5073420;28;20060;-77
2022/10/06 13:15:26;;;;;;;4.60;1.17;;;17.50;99.90;;;;;;5073364;28;20485;-76
2022/10/06 13:18:13;;;;;;;5.75;1.25;;;17.50;99.90;;;;;;5073382;28;20054;-78
2022/10/06 13:20:56;;;;;;;6.10;1.00;;;17.40;99.90;;;;;;5073111;28;20048;-76